Hewittville, New York
Current Conditions -  °F | °C
As of 11:53 PM on Friday 28 Nov 2014 (Local Time) from KMSS Reporting Station
Broken Clouds Broken Clouds  
Wind Chill: 15°   Ceiling: 11000
Heat Index: 15°   Visibility: 10mi
Dew Point: 11°   Wind: 0mph
Humidity: 84%   Direction: NA
Pressure: 30.21"   Gusts: NA
Location:  44.7612°N, 74.9585°W
Report Text: KMSS 290453Z AUTO 00000KT 10SM BKN110 M09/M12 A3021 RMK AO2 SLP237 T10941117 410391100
Loading
Personal Weather Stations






























Interactive Weather Map New forecast layout! Learn more

10-Day Weather Forecast

Advertisements
Track Severe Weather on mobile